Relevés horaires Charleroi (Belgique)


Relevés horaires à Charleroi - Lundi 19 Juill. 2021
Heure UTC1 Température [°C] Vent [km/h] Hum. [%] Pres.4 [hPa] Visi. [Km] Nébu. [octa] Préc.5 [mm] Cond.
2m. Res. Ros. Dir.2 Vit. Moy. Raf.3
23:00 17.0 17.0 13.9 E 1.9 1.9 3.7 82 1021(0.5/3h) 25 1/8 -- --
22:00 17.5 17.5 14.2 ENE 1.9 3.7 9.3 81 1021(0.5/3h) 25 1/8 -- --
21:00 18.8 18.8 14.5 ENE 3.7 7.4 11.1 76 1020.7(0.4/3h) 25 1/8 -- --
20:00 19.9 19.9 14.5 ENE 5.6 7.4 9.3 71 1020.3(-0.1/3h) 25 0/8 -- --
19:00 21.1 21.1 14.2 ENE 7.4 7.4 11.1 65 1020.2(-0.3/3h) 25 0/8 -- --
18:00 22.5 22.5 14.0 ENE 7.4 9.3 14.8 59 1020.1(-0.7/3h) 25 1/8 0/12h
--
17:00 24.0 24.0 14.6 ENE 7.4 9.3 13.0 56 1020.1(-0.9/3h) 25 2/8 -- --
16:00 24.3 24.3 14.7 N 7.4 7.4 11.1 55 1020.3(-0.8/3h) 30 2/8 -- --
15:00 23.8 23.8 14.3 N 7.4 9.3 14.8 55 1020.7(-0.7/3h) 30 3/8 -- --
14:00 24.2 24.2 14.2 N 5.6 9.3 14.8 54 1021(-0.7/3h) 30 2/8 -- --
13:00 24.0 24.0 14.0 NNE 7.4 7.4 14.8 54 1021.1(-0.7/3h) 30 2/8 -- --
12:00 23.1 23.1 14.0 NE 5.6 9.3 13.0 57 1021.5(-0.5/3h) 30 1/8 0/6h
--
11:00 22.2 22.2 13.7 NE 7.4 9.3 13.0 59 1021.9(-0.4/3h) 30 1/8 -- --
10:00 21.8 21.8 13.6 NE 9.3 9.3 13.0 60 1022.1(0.0/3h) 30 1/8 -- --
09:00 20.8 20.8 14.9 NE 7.4 9.3 13.0 69 1022.2(0.0/3h) 30 1/8 -- --
08:00 19.7 19.7 15.6 NNE 5.6 5.6 9.3 77 1022.5(0.5/3h) 20 0/8 -- --
07:00 18.4 18.4 15.4 ENE 3.7 5.6 7.4 83 1022.4(0.3/3h) 20 0/8 -- --
06:00 16.4 16.4 14.5 NNE 5.6 5.6 7.4 89 1022.5(-0.1/3h) 20 0/8 0/12h
--
05:00 15.5 15.5 13.9 N 3.7 3.7 7.4 90 1022.3(-0.3/3h) 20 0/8 -- --
04:00 14.7 14.7 13.1 N 1.9 3.7 5.6 90 1022.4(-0.6/3h) 25 1/8 -- --
03:00 15.1 15.1 13.3 N 3.7 5.6 7.4 89 1022.5(-0.6/3h) 25 1/8 -- --
02:00 15.0 15.0 13.2 ENE 1.9 1.9 3.7 89 1022.6(-0.7/3h) 25 1/8 -- --
01:00 16.0 16.0 13.6 E 1.9 5.6 7.4 86 1022.9(-0.3/3h) 25 1/8 -- --
00:00 17.0 17.0 14.0 NE 5.6 9.3 13.0 82 1023(0.2/3h) 25 1/8 0/6h
0/24h
--

1 Coordinated Universal Time. Actuellement il est 09:00 locale et 07:00 UTC.

2 Le vent souffle depuis la direction indiquée vers la direction oposée.

3 Les rafales max. sont disponible 40 min après l'heure du relevé.

4 Pour les stations d'altitude (plus de 600m) le géopotentiel du niveau le plus proche de la pression obligatoire est indiqué.

5 Les stations disposant d'un diffuseur peuvent indiquer "trace". Cela signifie que des précipitations ont touchés le sol mais que la quantité est inférieure à 0.1 mm.

Récapitulatif de la journée
Température [°C] Vent [km/h] Ensoleillement4 [h] Precipitations totale5 [mm] Pression [Hpa]
Min1 Max.2 Moy.3 Max. Min Max.
14.5 24.8 6.8 14.8 0 h 0 min 0 1020.1 1023.0

1 Température minimale relevée entre 18:00 UTC la veille et 18:00 UTC le jour donné.

2 Température maximale relevée entre 06:00 UTC le jour donné et 06:00 UTC le lendemain.

3 Vent moyen de la journée basé sur les relevés horaires.

4 Ensoleillement en heures relevé entre 06:00 UTC la veille et 06:00 UTC le jour donné.

5 Précipitations totales tombées entre 06:00 UTC la jour donné et 06:00 UTC le lendemain.

Graphiques horaires